Geffen, Netherlands
Current Conditions -  °F | °C
As of 11:55 PM on Friday 31 Oct 2014 (Local Time) from EHVK Reporting Station
Clear Clear  
Wind Chill: 55°   Ceiling: Unl
Heat Index: 55°   Visibility: 6mi
Dew Point: 52°   Wind: 3mph
Humidity: 88%   Direction: 160°SSE
Pressure: 30.12"   Gusts: NA
Location:  51.74°N, 5.46°E
Report Text: EHVK 312255Z AUTO 16003KT 9999 NCD 13/11 Q1020 BLU
Loading
Personal Weather Stations






























Interactive Weather Map
Tropical Storm Tracking
New forecast layout! Learn more

10-Day Weather Forecast

Advertisements
Track Severe Weather on mobile